createdAt,value
2022-11-21T00:00:47.222Z,20.60
2022-11-21T00:03:14.374Z,16.00
2022-11-21T00:05:43.688Z,22.27
2022-11-21T00:08:11.792Z,18.33
2022-11-21T00:10:39.552Z,17.13
2022-11-21T00:13:07.601Z,20.73
2022-11-21T00:15:35.663Z,24.67
2022-11-21T00:18:03.396Z,21.47
2022-11-21T00:20:30.746Z,27.77
2022-11-21T00:22:57.387Z,22.20
2022-11-21T00:25:24.113Z,22.47
2022-11-21T00:27:52.219Z,23.07
2022-11-21T00:30:18.961Z,20.50
2022-11-21T00:32:45.842Z,24.50
2022-11-21T00:35:12.786Z,25.17
2022-11-21T00:37:39.419Z,22.43
2022-11-21T00:40:06.626Z,12.30
2022-11-21T00:42:33.276Z,17.53
2022-11-21T00:44:59.878Z,19.93
2022-11-21T00:47:26.477Z,12.53
2022-11-21T00:49:53.103Z,28.10
2022-11-21T00:52:19.749Z,23.20
2022-11-21T00:54:46.366Z,14.70
2022-11-21T00:57:12.960Z,9.37
2022-11-21T00:59:39.563Z,14.50
2022-11-21T01:02:06.155Z,14.00
2022-11-21T01:04:34.261Z,14.63
2022-11-21T01:07:01.297Z,19.07
2022-11-21T01:09:28.677Z,22.50
2022-11-21T01:11:56.217Z,19.30
2022-11-21T01:14:23.232Z,22.03
2022-11-21T01:16:49.876Z,22.40
2022-11-21T01:19:16.525Z,18.60
2022-11-21T01:21:43.161Z,18.43
2022-11-21T01:24:12.246Z,18.77
2022-11-21T01:26:39.286Z,15.83
2022-11-21T01:29:07.059Z,20.93
2022-11-21T01:31:33.692Z,17.40
2022-11-21T01:34:01.170Z,18.87
2022-11-21T01:36:33.457Z,15.97
2022-11-21T01:39:03.657Z,15.60
2022-11-21T01:41:36.292Z,18.33
2022-11-21T01:44:10.784Z,20.90
2022-11-21T01:46:37.376Z,23.37
2022-11-21T01:49:10.860Z,24.00
2022-11-21T01:52:07.335Z,23.83
2022-11-21T01:55:05.371Z,22.03
2022-11-21T01:57:38.384Z,24.10
2022-11-21T02:00:21.476Z,32.77
2022-11-21T02:02:51.732Z,25.00
2022-11-21T02:05:23.827Z,26.60
2022-11-21T02:07:54.591Z,33.17
2022-11-21T02:10:22.862Z,32.47
2022-11-21T02:12:51.934Z,37.83
2022-11-21T02:15:20.339Z,34.17
2022-11-21T02:17:46.944Z,31.93
2022-11-21T02:20:16.858Z,30.17
2022-11-21T02:23:11.312Z,37.30
2022-11-21T02:25:41.350Z,33.97
2022-11-21T02:28:21.441Z,32.87
2022-11-21T02:30:48.011Z,31.33
2022-11-21T02:33:15.372Z,37.13
2022-11-21T02:35:42.083Z,37.70
2022-11-21T02:38:24.183Z,41.67
2022-11-21T02:40:58.701Z,41.23
2022-11-21T02:43:30.777Z,37.27
2022-11-21T02:45:58.943Z,51.13
2022-11-21T02:48:25.580Z,44.57
2022-11-21T02:50:52.203Z,44.30
2022-11-21T02:53:19.765Z,46.17
2022-11-21T02:55:46.731Z,44.77
2022-11-21T02:58:13.443Z,41.33
2022-11-21T03:00:41.990Z,41.60
2022-11-21T03:03:08.857Z,47.90
2022-11-21T03:05:35.842Z,48.20
2022-11-21T03:08:03.066Z,50.80
2022-11-21T03:10:29.711Z,53.03
2022-11-21T03:13:00.737Z,48.30
2022-11-21T03:15:29.858Z,52.50
2022-11-21T03:17:57.059Z,47.00
2022-11-21T03:20:24.137Z,53.40
2022-11-21T03:22:50.815Z,53.67
2022-11-21T03:25:17.889Z,53.23
2022-11-21T03:27:44.509Z,76.83
2022-11-21T03:30:11.850Z,60.37
2022-11-21T03:32:38.445Z,62.27
2022-11-21T03:35:05.820Z,70.53
2022-11-21T03:37:32.421Z,70.87
2022-11-21T03:39:59.029Z,77.63
2022-11-21T03:42:25.644Z,73.17
2022-11-21T03:44:52.443Z,81.63
2022-11-21T03:47:19.018Z,85.67
2022-11-21T03:49:45.617Z,78.03
2022-11-21T03:52:12.208Z,86.53
2022-11-21T03:54:38.809Z,89.57
2022-11-21T03:57:05.383Z,91.93
2022-11-21T03:59:31.985Z,90.33
2022-11-21T04:01:58.883Z,83.03
2022-11-21T04:04:25.920Z,108.43
2022-11-21T04:06:52.831Z,98.77
2022-11-21T04:09:19.457Z,99.93
2022-11-21T04:11:46.052Z,117.20
2022-11-21T04:14:12.675Z,121.10
2022-11-21T04:16:39.262Z,128.03
2022-11-21T04:19:05.847Z,138.67
2022-11-21T04:21:32.457Z,121.57
2022-11-21T04:23:59.044Z,112.23
2022-11-21T04:26:25.662Z,134.20
2022-11-21T04:28:52.232Z,103.80
2022-11-21T04:31:18.888Z,98.53
2022-11-21T04:33:45.474Z,116.60
2022-11-21T04:36:12.074Z,110.53
2022-11-21T04:38:38.694Z,111.37
2022-11-21T04:41:05.319Z,111.37
2022-11-21T04:43:32.030Z,108.27
2022-11-21T04:45:58.623Z,107.60
2022-11-21T04:48:25.371Z,108.83
2022-11-21T04:50:51.992Z,83.57
2022-11-21T04:53:18.608Z,90.83
2022-11-21T04:55:45.218Z,92.67
2022-11-21T04:58:11.841Z,86.70
2022-11-21T05:00:38.431Z,82.60
2022-11-21T05:03:06.169Z,99.70
2022-11-21T05:05:33.168Z,88.00
2022-11-21T05:07:59.830Z,97.43
2022-11-21T05:10:26.790Z,92.20
2022-11-21T05:13:19.094Z,91.37
2022-11-21T05:15:46.231Z,79.50
2022-11-21T05:18:13.097Z,90.50
2022-11-21T05:20:39.743Z,86.40
2022-11-21T05:23:06.554Z,89.37
2022-11-21T05:25:33.330Z,93.27
2022-11-21T05:27:59.923Z,98.23
2022-11-21T05:30:26.581Z,83.50
2022-11-21T05:32:53.309Z,101.50
2022-11-21T05:35:19.982Z,93.43
2022-11-21T05:37:46.655Z,110.67
2022-11-21T05:40:13.562Z,111.43
2022-11-21T05:43:00.763Z,110.57
2022-11-21T05:45:27.512Z,97.20
2022-11-21T05:47:54.185Z,89.53
2022-11-21T05:50:20.789Z,87.50
2022-11-21T05:52:47.689Z,107.90
2022-11-21T05:55:14.321Z,87.53
2022-11-21T05:57:40.917Z,96.70
2022-11-21T06:00:08.601Z,102.47
2022-11-21T06:03:07.400Z,100.00
2022-11-21T06:05:34.024Z,93.03
2022-11-21T06:08:00.642Z,84.20
2022-11-21T06:10:27.249Z,103.23
2022-11-21T06:12:53.841Z,105.10
2022-11-21T06:15:20.697Z,120.37
2022-11-21T06:17:47.289Z,102.13
2022-11-21T06:20:14.175Z,114.57
2022-11-21T06:22:40.797Z,128.03
2022-11-21T06:25:07.716Z,124.03
2022-11-21T06:27:34.324Z,104.53
2022-11-21T06:30:01.101Z,125.20
2022-11-21T06:32:27.739Z,110.63
2022-11-21T06:34:54.404Z,141.53
2022-11-21T06:37:20.999Z,123.80
2022-11-21T06:39:48.686Z,127.47
2022-11-21T06:42:15.279Z,123.50
2022-11-21T06:44:41.873Z,106.83
2022-11-21T06:47:08.473Z,182.13
2022-11-21T06:49:35.076Z,123.47
2022-11-21T06:52:01.680Z,141.70
2022-11-21T06:54:28.281Z,123.17
2022-11-21T06:56:55.490Z,124.60
2022-11-21T06:59:22.117Z,122.13
2022-11-21T07:01:48.835Z,103.40
2022-11-21T07:04:15.481Z,115.23
2022-11-21T07:06:42.090Z,106.83
2022-11-21T07:09:32.270Z,97.43
2022-11-21T07:11:55.402Z,104.43
2022-11-21T07:14:21.998Z,109.20
2022-11-21T07:16:48.607Z,108.73
2022-11-21T07:19:15.211Z,98.57
2022-11-21T07:21:43.019Z,90.57
2022-11-21T07:24:09.642Z,96.63
2022-11-21T07:26:36.259Z,105.67
2022-11-21T07:29:02.903Z,95.33
2022-11-21T07:31:29.522Z,93.53
2022-11-21T07:33:56.186Z,103.90
2022-11-21T07:36:22.835Z,98.37
2022-11-21T07:38:49.587Z,90.47
2022-11-21T07:41:16.186Z,86.43
2022-11-21T07:43:42.825Z,96.90
2022-11-21T07:46:09.805Z,94.33
2022-11-21T07:48:36.477Z,75.40
2022-11-21T07:51:05.234Z,67.47
2022-11-21T07:53:31.891Z,66.10
2022-11-21T07:55:59.760Z,67.90
2022-11-21T07:58:26.800Z,63.93
2022-11-21T08:00:53.668Z,66.30
2022-11-21T08:03:20.385Z,71.63
2022-11-21T08:05:47.573Z,64.87
2022-11-21T08:08:14.400Z,63.77
2022-11-21T08:10:43.360Z,72.80
2022-11-21T08:13:10.251Z,77.03
2022-11-21T08:15:37.440Z,54.00
2022-11-21T08:18:22.009Z,60.00
2022-11-21T08:20:48.992Z,59.00
2022-11-21T08:23:16.197Z,50.03
2022-11-21T08:25:43.250Z,65.13
2022-11-21T08:28:11.605Z,51.00
2022-11-21T08:30:39.541Z,54.37
2022-11-21T08:33:07.079Z,47.03
2022-11-21T08:35:37.547Z,48.63
2022-11-21T08:38:04.544Z,46.97
2022-11-21T08:40:32.585Z,39.13
2022-11-21T08:43:04.909Z,38.37
2022-11-21T08:45:32.406Z,37.43
2022-11-21T08:47:59.301Z,41.30
2022-11-21T08:50:26.387Z,35.60
2022-11-21T08:52:53.115Z,32.07
2022-11-21T08:55:20.038Z,38.33
2022-11-21T08:57:46.688Z,46.57
2022-11-21T09:00:13.939Z,35.77
2022-11-21T09:02:40.610Z,34.80
2022-11-21T09:05:08.106Z,30.30
2022-11-21T09:07:35.346Z,37.63
2022-11-21T09:10:02.028Z,27.33
2022-11-21T09:12:28.657Z,33.23
2022-11-21T09:15:13.837Z,32.10
2022-11-21T09:17:59.200Z,34.50
2022-11-21T09:20:26.062Z,29.20
2022-11-21T09:22:53.046Z,28.00
2022-11-21T09:25:19.768Z,28.30
2022-11-21T09:27:47.007Z,33.37
2022-11-21T09:30:14.165Z,30.70
2022-11-21T09:32:41.314Z,28.50
2022-11-21T09:35:08.769Z,27.60
2022-11-21T09:37:38.476Z,27.70
2022-11-21T09:40:08.326Z,28.00
2022-11-21T09:43:02.808Z,29.73
2022-11-21T09:46:01.896Z,29.00
2022-11-21T09:48:51.879Z,30.77
2022-11-21T09:51:20.468Z,30.13
2022-11-21T09:54:27.196Z,25.63
2022-11-21T09:56:56.089Z,26.20
2022-11-21T09:59:39.885Z,30.00
2022-11-21T10:02:16.465Z,27.30
2022-11-21T10:04:43.548Z,27.80
2022-11-21T10:07:26.756Z,29.63
2022-11-21T10:10:23.538Z,32.90
2022-11-21T10:13:14.983Z,31.60
2022-11-21T10:16:12.874Z,24.57
2022-11-21T10:19:13.833Z,27.40
2022-11-21T10:22:21.678Z,29.70
2022-11-21T10:25:13.103Z,24.57
2022-11-21T10:27:57.450Z,29.47
2022-11-21T10:30:24.121Z,25.90
2022-11-21T10:32:58.673Z,27.77
2022-11-21T10:35:34.879Z,26.50
2022-11-21T10:38:03.254Z,28.17
2022-11-21T10:40:36.070Z,26.17
2022-11-21T10:43:41.457Z,22.90
2022-11-21T10:46:09.055Z,23.07
2022-11-21T10:48:35.877Z,27.17
2022-11-21T10:51:38.514Z,20.83
2022-11-21T10:54:31.693Z,22.70
2022-11-21T10:57:12.272Z,16.63
2022-11-21T10:59:39.341Z,19.17
2022-11-21T11:02:26.313Z,22.73
2022-11-21T11:05:25.477Z,17.10
2022-11-21T11:08:14.054Z,13.73
2022-11-21T11:10:43.283Z,15.10
2022-11-21T11:16:19.618Z,15.67
2022-11-21T11:18:59.320Z,20.13
2022-11-21T11:21:27.541Z,13.90
2022-11-21T11:24:06.156Z,14.33
2022-11-21T11:26:32.799Z,11.50
2022-11-21T11:29:23.900Z,13.13
2022-11-21T11:31:59.453Z,12.13
2022-11-21T11:34:51.071Z,15.23
2022-11-21T11:37:35.830Z,13.10
2022-11-21T11:40:21.398Z,11.83
2022-11-21T11:43:35.660Z,11.77
2022-11-21T11:46:42.238Z,14.07
2022-11-21T11:49:21.154Z,11.57
2022-11-21T11:51:54.527Z,8.43
2022-11-21T11:54:27.727Z,9.97
2022-11-21T11:56:55.473Z,8.53
2022-11-21T11:59:40.115Z,8.63
2022-11-21T12:02:16.581Z,9.50
2022-11-21T12:04:53.729Z,12.53
2022-11-21T12:10:24.223Z,9.77
2022-11-21T12:13:09.261Z,7.60
2022-11-21T12:15:49.855Z,5.77
2022-11-21T12:18:19.525Z,8.00
2022-11-21T12:20:49.213Z,9.23
2022-11-21T12:23:16.722Z,6.03
2022-11-21T12:26:35.412Z,7.10
2022-11-21T12:29:21.178Z,4.53
2022-11-21T12:31:51.057Z,5.53
2022-11-21T12:34:30.795Z,4.23
2022-11-21T12:37:08.361Z,5.43
2022-11-21T12:39:53.093Z,6.73
2022-11-21T12:42:49.068Z,5.73
2022-11-21T12:45:28.725Z,4.00
2022-11-21T12:48:31.754Z,4.30
2022-11-21T12:51:38.971Z,2.73
2022-11-21T12:54:30.065Z,2.53
2022-11-21T12:57:09.818Z,3.90
2022-11-21T12:59:54.667Z,3.70
2022-11-21T13:02:30.778Z,2.87
2022-11-21T13:04:59.434Z,4.20
2022-11-21T13:07:29.641Z,7.60
2022-11-21T13:09:59.036Z,2.23
2022-11-21T13:12:45.065Z,3.33
2022-11-21T13:15:56.270Z,2.87
2022-11-21T13:18:30.540Z,2.53
2022-11-21T13:20:57.225Z,2.93
2022-11-21T13:23:39.575Z,2.13
2022-11-21T13:26:24.575Z,4.90
2022-11-21T13:29:06.802Z,1.77
2022-11-21T13:31:34.156Z,2.70
2022-11-21T13:34:02.546Z,4.30
2022-11-21T13:36:29.133Z,2.20
2022-11-21T13:38:59.025Z,2.37
2022-11-21T13:41:53.130Z,5.03
2022-11-21T13:44:31.962Z,2.50
2022-11-21T13:47:09.603Z,3.60
2022-11-21T13:50:01.173Z,2.00
2022-11-21T13:52:54.992Z,4.33
2022-11-21T13:55:39.643Z,7.63
2022-11-21T13:58:18.685Z,5.20
2022-11-21T14:01:01.096Z,3.00
2022-11-21T14:03:33.719Z,2.70
2022-11-21T14:06:09.439Z,3.17
2022-11-21T14:08:36.303Z,3.70
2022-11-21T14:11:29.860Z,7.20
2022-11-21T14:13:56.509Z,5.40
2022-11-21T14:16:41.758Z,5.00
2022-11-21T14:19:17.517Z,6.53
2022-11-21T14:21:46.092Z,7.63
2022-11-21T14:24:17.254Z,2.10
2022-11-21T14:26:50.269Z,2.57
2022-11-21T14:29:26.715Z,4.03
2022-11-21T14:31:54.137Z,1.97
2022-11-21T14:34:29.718Z,3.00
2022-11-21T14:36:59.702Z,2.97
2022-11-21T14:39:38.126Z,2.90
2022-11-21T14:42:15.433Z,3.23
2022-11-21T14:44:42.862Z,2.57
2022-11-21T14:47:26.279Z,4.10
2022-11-21T14:49:55.577Z,3.73
2022-11-21T14:52:29.003Z,5.23
2022-11-21T14:57:52.977Z,3.03
2022-11-21T15:00:57.889Z,1.60
2022-11-21T15:03:22.185Z,3.47
2022-11-21T15:06:07.288Z,3.17
2022-11-21T15:09:46.049Z,4.63
2022-11-21T15:11:29.363Z,3.93
2022-11-21T15:14:17.442Z,9.60
2022-11-21T15:16:51.101Z,9.37
2022-11-21T15:19:27.334Z,6.43
2022-11-21T15:21:57.148Z,5.00
2022-11-21T15:24:42.618Z,3.30
2022-11-21T15:27:28.026Z,4.70
2022-11-21T15:30:21.996Z,2.70
2022-11-21T15:33:11.069Z,7.17
2022-11-21T15:35:40.678Z,3.90
2022-11-21T15:38:19.376Z,5.20
2022-11-21T15:41:15.187Z,8.77
2022-11-21T15:44:01.358Z,6.20
2022-11-21T15:46:37.794Z,3.87
2022-11-21T15:49:31.048Z,3.63
2022-11-21T15:54:38.761Z,4.80
2022-11-21T15:57:05.366Z,5.93
2022-11-21T15:57:11.102Z,3.20
2022-11-21T15:59:32.148Z,2.63
2022-11-21T16:01:59.056Z,6.10
2022-11-21T16:04:26.416Z,5.40
2022-11-21T16:06:56.011Z,2.90
2022-11-21T16:09:23.070Z,19.23
2022-11-21T16:11:49.715Z,6.43
2022-11-21T16:14:18.114Z,7.83
2022-11-21T16:16:45.511Z,6.70
2022-11-21T16:19:13.556Z,3.23
2022-11-21T16:21:40.484Z,7.97
2022-11-21T16:24:07.200Z,7.57
2022-11-21T16:26:33.899Z,3.80
2022-11-21T16:29:01.417Z,5.87
2022-11-21T16:31:30.666Z,5.13
2022-11-21T16:33:58.445Z,3.50
2022-11-21T16:36:27.287Z,5.20
2022-11-21T16:38:54.194Z,7.70
2022-11-21T16:41:22.771Z,5.10
2022-11-21T16:43:51.286Z,5.93
2022-11-21T16:46:19.686Z,5.53
2022-11-21T16:48:46.865Z,3.17
2022-11-21T16:51:18.197Z,5.50
2022-11-21T16:53:46.272Z,5.33
2022-11-21T16:56:13.279Z,7.90
2022-11-21T16:58:41.206Z,3.93
2022-11-21T17:01:13.510Z,10.80
2022-11-21T17:03:41.808Z,3.57
2022-11-21T17:06:10.799Z,7.80
2022-11-21T17:08:38.187Z,5.80
2022-11-21T17:11:31.799Z,4.00
2022-11-21T17:14:03.534Z,5.87
2022-11-21T17:16:30.559Z,3.40
2022-11-21T17:18:59.283Z,10.73
2022-11-21T17:21:26.972Z,8.67
2022-11-21T17:23:54.330Z,6.67
2022-11-21T17:26:23.699Z,6.83
2022-11-21T17:28:55.135Z,5.20
2022-11-21T17:31:21.767Z,7.20
2022-11-21T17:33:51.818Z,4.77
2022-11-21T17:36:21.478Z,4.70
2022-11-21T17:38:48.652Z,4.93
2022-11-21T17:41:18.027Z,6.70
2022-11-21T17:43:45.001Z,3.57
2022-11-21T17:46:17.427Z,7.07
2022-11-21T17:48:49.754Z,4.87
2022-11-21T17:51:22.296Z,12.93
2022-11-21T17:53:50.427Z,7.07
2022-11-21T17:56:22.327Z,3.83
2022-11-21T17:58:50.289Z,4.50
2022-11-21T18:01:20.685Z,4.53
2022-11-21T18:03:52.874Z,7.07
2022-11-21T18:06:19.739Z,5.23
2022-11-21T18:08:48.322Z,4.90
2022-11-21T18:11:21.321Z,4.60
2022-11-21T18:13:48.917Z,5.30
2022-11-21T18:16:19.139Z,5.77
2022-11-21T18:18:46.825Z,10.70
2022-11-21T18:21:15.960Z,5.47
2022-11-21T18:23:44.023Z,7.20
2022-11-21T18:26:22.645Z,6.43
2022-11-21T18:29:01.654Z,4.57
2022-11-21T18:31:37.570Z,4.63
2022-11-21T18:34:06.619Z,7.40
2022-11-21T18:36:33.704Z,5.70
2022-11-21T18:39:07.396Z,5.63
2022-11-21T18:41:38.857Z,6.30
2022-11-21T18:44:06.725Z,4.10
2022-11-21T18:46:35.945Z,4.87
2022-11-21T18:49:06.511Z,5.80
2022-11-21T18:51:35.589Z,8.93
2022-11-21T18:54:08.124Z,10.60
2022-11-21T18:56:36.612Z,4.23
2022-11-21T18:59:05.408Z,3.87
2022-11-21T19:01:32.745Z,5.90
2022-11-21T19:03:59.776Z,4.90
2022-11-21T19:06:27.652Z,6.07
2022-11-21T19:08:55.941Z,7.70
2022-11-21T19:11:24.805Z,5.67
2022-11-21T19:13:53.167Z,5.97
2022-11-21T19:16:24.227Z,6.50
2022-11-21T19:19:12.063Z,4.47
2022-11-21T19:21:39.553Z,5.13
2022-11-21T19:24:07.218Z,8.23
2022-11-21T19:26:33.959Z,9.17
2022-11-21T19:29:00.954Z,5.87
2022-11-21T19:31:27.749Z,4.87
2022-11-21T19:33:54.405Z,8.63
2022-11-21T19:36:23.406Z,6.07
2022-11-21T19:38:51.575Z,6.97
2022-11-21T19:41:26.567Z,5.30
2022-11-21T19:43:57.368Z,5.20
2022-11-21T19:46:26.663Z,6.07
2022-11-21T19:48:55.608Z,8.50
2022-11-21T19:51:27.486Z,6.20
2022-11-21T19:53:54.244Z,6.87
2022-11-21T19:56:23.711Z,7.30
2022-11-21T19:58:51.485Z,13.37
2022-11-21T20:01:20.287Z,5.80
2022-11-21T20:03:48.859Z,4.30
2022-11-21T20:06:17.944Z,5.37
2022-11-21T20:08:48.988Z,5.90
2022-11-21T20:11:16.677Z,11.23
2022-11-21T20:13:45.204Z,11.97
2022-11-21T20:16:21.097Z,10.10
2022-11-21T20:18:48.141Z,10.77
2022-11-21T20:21:15.547Z,6.83
2022-11-21T20:23:42.528Z,6.70
2022-11-21T20:26:09.657Z,9.10
2022-11-21T20:28:37.110Z,12.27
2022-11-21T20:31:09.203Z,11.80
2022-11-21T20:33:37.473Z,7.57
2022-11-21T20:36:05.993Z,7.20
2022-11-21T20:38:32.740Z,8.90
2022-11-21T20:41:00.236Z,10.83
2022-11-21T20:43:52.593Z,8.20
2022-11-21T20:46:19.925Z,7.67
2022-11-21T20:48:47.266Z,12.90
2022-11-21T20:52:43.323Z,9.27
2022-11-21T20:54:03.767Z,9.33
2022-11-21T20:56:35.470Z,7.07
2022-11-21T20:59:03.636Z,8.03
2022-11-21T21:01:30.976Z,6.10
2022-11-21T21:03:57.799Z,5.80
2022-11-21T21:06:24.426Z,6.33
2022-11-21T21:08:52.007Z,13.60
2022-11-21T21:11:50.491Z,9.83
2022-11-21T21:14:11.882Z,16.87
2022-11-21T21:16:38.492Z,10.30
2022-11-21T21:19:05.119Z,12.17
2022-11-21T21:21:31.744Z,10.00
2022-11-21T21:24:04.213Z,9.00
2022-11-21T21:26:41.789Z,7.57
2022-11-21T21:29:11.691Z,7.23
2022-11-21T21:31:38.320Z,6.53
2022-11-21T21:34:05.001Z,5.73
2022-11-21T21:36:32.357Z,8.03
2022-11-21T21:39:00.451Z,9.07
2022-11-21T21:41:29.592Z,5.13
2022-11-21T21:43:57.410Z,6.50
2022-11-21T21:46:26.476Z,8.23
2022-11-21T21:48:56.112Z,12.60
2022-11-21T21:51:28.303Z,9.37
2022-11-21T21:53:56.849Z,8.13
2022-11-21T21:56:25.745Z,8.10
2022-11-21T21:58:52.620Z,8.70
2022-11-21T22:01:28.058Z,6.97
2022-11-21T22:04:00.303Z,5.00
2022-11-21T22:06:27.679Z,8.17
2022-11-21T22:08:54.953Z,6.20
2022-11-21T22:11:32.740Z,7.53
2022-11-21T22:14:05.757Z,8.40
2022-11-21T22:16:32.617Z,5.50
2022-11-21T22:18:59.262Z,5.43
2022-11-21T22:21:28.389Z,8.43
2022-11-21T22:26:46.702Z,4.50
2022-11-21T22:29:13.499Z,8.40
2022-11-21T22:31:40.176Z,8.03
2022-11-21T22:34:06.822Z,6.00
2022-11-21T22:36:33.456Z,8.03
2022-11-21T22:39:00.052Z,4.50
2022-11-21T22:41:27.440Z,3.37
2022-11-21T22:43:56.533Z,4.50
2022-11-21T22:46:25.073Z,4.60
2022-11-21T22:48:51.703Z,5.00
2022-11-21T22:51:23.868Z,6.63
2022-11-21T22:53:51.347Z,2.70
2022-11-21T22:56:19.972Z,6.13
2022-11-21T22:58:47.425Z,3.70
2022-11-21T23:01:17.608Z,5.03
2022-11-21T23:03:44.485Z,8.80
2022-11-21T23:06:30.412Z,11.10
2022-11-21T23:08:57.535Z,5.30
2022-11-21T23:11:27.457Z,8.20
2022-11-21T23:13:55.611Z,3.13
2022-11-21T23:16:22.377Z,5.70
2022-11-21T23:18:52.514Z,11.60
2022-11-21T23:21:19.178Z,9.07
2022-11-21T23:23:45.783Z,8.60
2022-11-21T23:26:12.479Z,9.70
2022-11-21T23:28:39.257Z,6.27
2022-11-21T23:31:05.886Z,4.50
2022-11-21T23:33:32.553Z,11.90
2022-11-21T23:35:59.155Z,4.70
2022-11-21T23:38:25.821Z,4.43
2022-11-21T23:40:52.535Z,7.73
2022-11-21T23:43:19.185Z,10.90
2022-11-21T23:45:53.824Z,5.87
2022-11-21T23:48:21.319Z,6.27
2022-11-21T23:50:50.235Z,7.80
2022-11-21T23:53:17.288Z,8.97
2022-11-21T23:55:44.267Z,8.63
2022-11-21T23:58:11.529Z,7.27
